RPC2134 RPLL-RPVE
Flight info
| Callsign | RPC2134 |
|---|---|
| Flight time | 0h 44m |
| Altitude | 25000 |
| Route | VERDE2V VERDE W24 TAPER TAPER7B |
| Aircraft | GLF6/M-SBDE2E3FGHIJ4J5M1RWXY/LB1D1 |
Departure
| Time | 2026-04-22 00:52 |
|---|---|
| Airport | Ninoy Aquino International Airport (RPLL) |
Arrival
| Time | 2026-04-22 01:37 |
|---|---|
| Airport | Godofredo P. Ramos Airport (RPVE) |
| Time | Latitude | Longitude | Altitude | Speed | Heading |
|---|---|---|---|---|---|
| 2026-04-22 00:33 | 14.51174 | 121.01986 | 67 ft | 0 kts | 331° |
| 2026-04-22 00:47 | 14.51174 | 121.01985 | 67 ft | 0 kts | 331° |
| 2026-04-22 00:47 | 14.51212 | 121.01958 | 65 ft | 12 kts | 313° |
| 2026-04-22 00:47 | 14.51190 | 121.01880 | 63 ft | 14 kts | 256° |
| 2026-04-22 00:47 | 14.51269 | 121.01784 | 67 ft | 22 kts | 315° |
| 2026-04-22 00:48 | 14.51385 | 121.01665 | 60 ft | 24 kts | 315° |
| 2026-04-22 00:48 | 14.51501 | 121.01544 | 59 ft | 20 kts | 315° |
| 2026-04-22 00:48 | 14.51602 | 121.01438 | 61 ft | 21 kts | 316° |
| 2026-04-22 00:48 | 14.51709 | 121.01329 | 67 ft | 22 kts | 315° |
| 2026-04-22 00:49 | 14.51820 | 121.01215 | 67 ft | 23 kts | 315° |
| 2026-04-22 00:49 | 14.51934 | 121.01098 | 62 ft | 23 kts | 315° |
| 2026-04-22 00:49 | 14.52048 | 121.00981 | 62 ft | 24 kts | 314° |
| 2026-04-22 00:49 | 14.52162 | 121.00862 | 67 ft | 22 kts | 314° |
| 2026-04-22 00:50 | 14.52271 | 121.00750 | 67 ft | 23 kts | 315° |
| 2026-04-22 00:50 | 14.52384 | 121.00633 | 67 ft | 23 kts | 315° |
| 2026-04-22 00:50 | 14.52472 | 121.00544 | 67 ft | 10 kts | 315° |
| 2026-04-22 00:50 | 14.52480 | 121.00485 | 61 ft | 11 kts | 227° |
| 2026-04-22 00:51 | 14.52424 | 121.00425 | 65 ft | 11 kts | 225° |
| 2026-04-22 00:51 | 14.52380 | 121.00392 | 67 ft | 7 kts | 182° |
| 2026-04-22 00:51 | 14.52352 | 121.00411 | 62 ft | 0 kts | 134° |
| 2026-04-22 00:52 | 14.52311 | 121.00455 | 65 ft | 36 kts | 134° |
| 2026-04-22 00:52 | 14.51911 | 121.00871 | 60 ft | 126 kts | 135° |
| 2026-04-22 00:52 | 14.51168 | 121.01655 | 481 ft | 160 kts | 134° |
| 2026-04-22 00:52 | 14.50338 | 121.02465 | 1069 ft | 169 kts | 137° |
| 2026-04-22 00:53 | 14.49461 | 121.03354 | 1001 ft | 190 kts | 123° |
| 2026-04-22 00:53 | 14.48756 | 121.04399 | 1294 ft | 175 kts | 126° |
| 2026-04-22 00:53 | 14.47915 | 121.05424 | 1200 ft | 179 kts | 131° |
| 2026-04-22 00:53 | 14.47086 | 121.06324 | 1508 ft | 173 kts | 131° |
| 2026-04-22 00:54 | 14.46170 | 121.07131 | 1709 ft | 172 kts | 148° |
| 2026-04-22 00:54 | 14.45115 | 121.07759 | 1818 ft | 176 kts | 153° |
| 2026-04-22 00:54 | 14.43973 | 121.08223 | 1934 ft | 179 kts | 153° |
| 2026-04-22 00:54 | 14.42897 | 121.08807 | 2161 ft | 172 kts | 146° |
| 2026-04-22 00:55 | 14.41896 | 121.09467 | 2332 ft | 172 kts | 143° |
| 2026-04-22 00:55 | 14.40896 | 121.10141 | 2523 ft | 172 kts | 143° |
| 2026-04-22 00:55 | 14.38851 | 121.11386 | 2731 ft | 182 kts | 175° |
| 2026-04-22 00:56 | 14.37672 | 121.10912 | 2842 ft | 191 kts | 221° |
| 2026-04-22 00:56 | 14.36924 | 121.09785 | 3014 ft | 190 kts | 234° |
| 2026-04-22 00:56 | 14.35924 | 121.08934 | 3044 ft | 187 kts | 193° |
| 2026-04-22 00:56 | 14.34675 | 121.08763 | 3302 ft | 179 kts | 182° |
| 2026-04-22 00:57 | 14.33501 | 121.08279 | 3590 ft | 188 kts | 210° |
| 2026-04-22 00:57 | 14.32443 | 121.07466 | 3833 ft | 192 kts | 211° |
| 2026-04-22 00:57 | 14.31279 | 121.06728 | 3816 ft | 197 kts | 205° |
| 2026-04-22 00:57 | 14.30115 | 121.06027 | 3976 ft | 186 kts | 207° |
| 2026-04-22 00:58 | 14.29064 | 121.05316 | 4448 ft | 185 kts | 208° |
| 2026-04-22 00:58 | 14.27978 | 121.04619 | 4921 ft | 182 kts | 207° |
| 2026-04-22 00:58 | 14.26873 | 121.03911 | 5392 ft | 191 kts | 208° |
| 2026-04-22 00:58 | 14.25647 | 121.03131 | 5942 ft | 226 kts | 208° |
| 2026-04-22 00:59 | 14.24182 | 121.02189 | 6540 ft | 267 kts | 209° |
| 2026-04-22 00:59 | 14.22637 | 121.01184 | 7051 ft | 259 kts | 209° |
| 2026-04-22 00:59 | 14.21084 | 121.00181 | 7477 ft | 267 kts | 209° |
| 2026-04-22 00:59 | 14.19538 | 120.99182 | 7845 ft | 264 kts | 210° |
| 2026-04-22 01:00 | 14.17957 | 120.98163 | 8270 ft | 270 kts | 209° |
| 2026-04-22 01:00 | 14.16372 | 120.97146 | 8740 ft | 268 kts | 209° |
| 2026-04-22 01:00 | 14.14760 | 120.96111 | 9214 ft | 275 kts | 210° |
| 2026-04-22 01:00 | 14.13145 | 120.95063 | 9646 ft | 276 kts | 210° |
| 2026-04-22 01:01 | 14.11500 | 120.94008 | 10091 ft | 279 kts | 210° |
| 2026-04-22 01:01 | 14.10412 | 120.93311 | 10369 ft | 279 kts | 210° |
| 2026-04-22 01:01 | 14.08195 | 120.91879 | 10939 ft | 280 kts | 210° |
| 2026-04-22 01:01 | 14.06520 | 120.90817 | 11360 ft | 284 kts | 208° |
| 2026-04-22 01:02 | 14.04686 | 120.90105 | 11764 ft | 281 kts | 190° |
| 2026-04-22 01:02 | 14.02746 | 120.89924 | 12198 ft | 281 kts | 176° |
| 2026-04-22 01:02 | 14.00815 | 120.90249 | 12644 ft | 282 kts | 164° |
| 2026-04-22 01:02 | 13.98928 | 120.90747 | 13101 ft | 285 kts | 165° |
| 2026-04-22 01:03 | 13.96971 | 120.91231 | 13575 ft | 287 kts | 166° |
| 2026-04-22 01:03 | 13.95028 | 120.91727 | 13999 ft | 288 kts | 165° |
| 2026-04-22 01:03 | 13.93107 | 120.92233 | 14399 ft | 290 kts | 165° |
| 2026-04-22 01:03 | 13.91144 | 120.92734 | 14812 ft | 291 kts | 166° |
| 2026-04-22 01:04 | 13.89179 | 120.93234 | 15223 ft | 291 kts | 166° |
| 2026-04-22 01:04 | 13.87209 | 120.93742 | 15637 ft | 292 kts | 166° |
| 2026-04-22 01:04 | 13.85234 | 120.94248 | 16058 ft | 292 kts | 166° |
| 2026-04-22 01:04 | 13.83257 | 120.94756 | 16474 ft | 293 kts | 166° |
| 2026-04-22 01:05 | 13.81280 | 120.95262 | 16894 ft | 293 kts | 166° |
| 2026-04-22 01:05 | 13.79304 | 120.95769 | 17309 ft | 293 kts | 166° |
| 2026-04-22 01:05 | 13.77331 | 120.96274 | 17730 ft | 292 kts | 167° |
| 2026-04-22 01:05 | 13.75356 | 120.96780 | 18170 ft | 292 kts | 166° |
| 2026-04-22 01:06 | 13.73337 | 120.97299 | 18550 ft | 312 kts | 167° |
| 2026-04-22 01:06 | 13.71139 | 120.97858 | 19040 ft | 338 kts | 167° |
| 2026-04-22 01:06 | 13.68863 | 120.98443 | 19600 ft | 330 kts | 167° |
| 2026-04-22 01:06 | 13.66632 | 120.99018 | 20097 ft | 334 kts | 167° |
| 2026-04-22 01:07 | 13.64382 | 120.99589 | 20630 ft | 337 kts | 168° |
| 2026-04-22 01:07 | 13.62111 | 121.00173 | 21164 ft | 337 kts | 168° |
| 2026-04-22 01:07 | 13.59817 | 121.00761 | 21718 ft | 342 kts | 168° |
| 2026-04-22 01:07 | 13.57495 | 121.01353 | 22284 ft | 345 kts | 168° |
| 2026-04-22 01:08 | 13.55161 | 121.01951 | 22870 ft | 346 kts | 168° |
| 2026-04-22 01:08 | 13.52812 | 121.02551 | 23467 ft | 351 kts | 168° |
| 2026-04-22 01:08 | 13.50468 | 121.03335 | 23973 ft | 358 kts | 158° |
| 2026-04-22 01:08 | 13.48309 | 121.04617 | 24486 ft | 360 kts | 147° |
| 2026-04-22 01:09 | 13.46238 | 121.06097 | 24990 ft | 366 kts | 147° |
| 2026-04-22 01:09 | 13.44080 | 121.07600 | 25014 ft | 377 kts | 148° |
| 2026-04-22 01:09 | 13.41933 | 121.09096 | 25017 ft | 370 kts | 147° |
| 2026-04-22 01:09 | 13.39831 | 121.10589 | 25009 ft | 364 kts | 147° |
| 2026-04-22 01:10 | 13.37660 | 121.12116 | 25017 ft | 395 kts | 147° |
| 2026-04-22 01:10 | 13.35286 | 121.13770 | 25036 ft | 426 kts | 147° |
| 2026-04-22 01:10 | 13.32845 | 121.15491 | 25033 ft | 421 kts | 147° |
| 2026-04-22 01:10 | 13.30441 | 121.17188 | 25028 ft | 421 kts | 147° |
| 2026-04-22 01:11 | 13.28014 | 121.18885 | 25030 ft | 423 kts | 147° |
| 2026-04-22 01:11 | 13.25619 | 121.20562 | 25026 ft | 421 kts | 147° |
| 2026-04-22 01:11 | 13.23198 | 121.22261 | 25024 ft | 424 kts | 147° |
| 2026-04-22 01:11 | 13.20766 | 121.23973 | 25022 ft | 422 kts | 147° |
| 2026-04-22 01:12 | 13.18344 | 121.25668 | 25032 ft | 423 kts | 147° |
| 2026-04-22 01:12 | 13.15904 | 121.27372 | 25023 ft | 424 kts | 147° |
| 2026-04-22 01:12 | 13.13468 | 121.29081 | 25029 ft | 423 kts | 147° |
| 2026-04-22 01:12 | 13.11036 | 121.30788 | 25031 ft | 423 kts | 147° |
| 2026-04-22 01:13 | 13.08602 | 121.32493 | 25037 ft | 424 kts | 147° |
| 2026-04-22 01:13 | 13.06165 | 121.34200 | 25029 ft | 423 kts | 147° |
| 2026-04-22 01:13 | 13.03734 | 121.35897 | 25029 ft | 423 kts | 147° |
| 2026-04-22 01:13 | 13.01294 | 121.37606 | 25033 ft | 425 kts | 147° |
| 2026-04-22 01:14 | 12.98855 | 121.39314 | 25029 ft | 425 kts | 147° |
| 2026-04-22 01:14 | 12.96416 | 121.41019 | 25028 ft | 424 kts | 147° |
| 2026-04-22 01:14 | 12.93979 | 121.42726 | 25025 ft | 424 kts | 147° |
| 2026-04-22 01:14 | 12.91540 | 121.44428 | 25030 ft | 425 kts | 147° |
| 2026-04-22 01:15 | 12.89129 | 121.46113 | 25013 ft | 425 kts | 147° |
| 2026-04-22 01:15 | 12.86690 | 121.47819 | 25010 ft | 424 kts | 147° |
| 2026-04-22 01:15 | 12.84247 | 121.49525 | 24885 ft | 428 kts | 147° |
| 2026-04-22 01:15 | 12.81771 | 121.51255 | 24325 ft | 432 kts | 147° |
| 2026-04-22 01:16 | 12.79291 | 121.52987 | 23753 ft | 431 kts | 147° |
| 2026-04-22 01:16 | 12.76818 | 121.54714 | 23142 ft | 429 kts | 147° |
| 2026-04-22 01:16 | 12.74366 | 121.56428 | 22592 ft | 423 kts | 147° |
| 2026-04-22 01:16 | 12.71943 | 121.58117 | 22046 ft | 418 kts | 147° |
| 2026-04-22 01:17 | 12.69550 | 121.59785 | 21510 ft | 414 kts | 147° |
| 2026-04-22 01:17 | 12.67179 | 121.61440 | 20979 ft | 410 kts | 147° |
| 2026-04-22 01:17 | 12.64831 | 121.63077 | 20451 ft | 407 kts | 147° |
| 2026-04-22 01:17 | 12.62506 | 121.64697 | 19928 ft | 403 kts | 147° |
| 2026-04-22 01:18 | 12.60974 | 121.65765 | 19587 ft | 401 kts | 146° |
| 2026-04-22 01:18 | 12.57936 | 121.67884 | 18906 ft | 396 kts | 146° |
| 2026-04-22 01:18 | 12.56401 | 121.68953 | 18565 ft | 394 kts | 146° |
| 2026-04-22 01:18 | 12.53411 | 121.71033 | 17854 ft | 389 kts | 146° |
| 2026-04-22 01:19 | 12.51190 | 121.72583 | 17344 ft | 384 kts | 146° |
| 2026-04-22 01:19 | 12.49701 | 121.73621 | 17017 ft | 381 kts | 146° |
| 2026-04-22 01:19 | 12.46815 | 121.75626 | 16368 ft | 376 kts | 146° |
| 2026-04-22 01:19 | 12.45382 | 121.76624 | 16045 ft | 374 kts | 146° |
| 2026-04-22 01:20 | 12.43237 | 121.78120 | 15555 ft | 371 kts | 146° |
| 2026-04-22 01:20 | 12.41110 | 121.79597 | 15070 ft | 368 kts | 146° |
| 2026-04-22 01:20 | 12.39003 | 121.81062 | 14589 ft | 365 kts | 146° |
| 2026-04-22 01:20 | 12.36869 | 121.82448 | 14110 ft | 361 kts | 153° |
| 2026-04-22 01:21 | 12.34554 | 121.83361 | 13641 ft | 353 kts | 164° |
| 2026-04-22 01:21 | 12.32217 | 121.84033 | 13183 ft | 345 kts | 164° |
| 2026-04-22 01:21 | 12.29966 | 121.84717 | 12754 ft | 325 kts | 163° |
| 2026-04-22 01:21 | 12.27876 | 121.85354 | 12383 ft | 303 kts | 164° |
| 2026-04-22 01:22 | 12.25922 | 121.85925 | 12019 ft | 279 kts | 164° |
| 2026-04-22 01:22 | 12.24151 | 121.86448 | 11715 ft | 252 kts | 164° |
| 2026-04-22 01:22 | 12.22540 | 121.86933 | 11445 ft | 232 kts | 164° |
| 2026-04-22 01:22 | 12.21005 | 121.87387 | 11178 ft | 228 kts | 164° |
| 2026-04-22 01:23 | 12.19482 | 121.87839 | 10895 ft | 227 kts | 164° |
| 2026-04-22 01:23 | 12.17967 | 121.88292 | 10604 ft | 226 kts | 164° |
| 2026-04-22 01:23 | 12.16460 | 121.88737 | 10311 ft | 224 kts | 164° |
| 2026-04-22 01:23 | 12.14969 | 121.89183 | 10021 ft | 222 kts | 164° |
| 2026-04-22 01:24 | 12.13488 | 121.89623 | 9714 ft | 221 kts | 165° |
| 2026-04-22 01:24 | 12.12007 | 121.90061 | 9424 ft | 222 kts | 164° |
| 2026-04-22 01:24 | 12.10547 | 121.90497 | 9138 ft | 221 kts | 163° |
| 2026-04-22 01:24 | 12.09069 | 121.90934 | 8839 ft | 220 kts | 163° |
| 2026-04-22 01:25 | 12.07597 | 121.91372 | 8545 ft | 220 kts | 163° |
| 2026-04-22 01:25 | 12.06078 | 121.91556 | 8234 ft | 224 kts | 182° |
| 2026-04-22 01:25 | 12.04550 | 121.91219 | 8033 ft | 224 kts | 196° |
| 2026-04-22 01:25 | 12.03214 | 121.90355 | 7659 ft | 232 kts | 221° |
| 2026-04-22 01:26 | 12.02204 | 121.89071 | 7364 ft | 232 kts | 235° |
| 2026-04-22 01:26 | 12.01308 | 121.87697 | 7059 ft | 233 kts | 234° |
| 2026-04-22 01:26 | 12.00367 | 121.86344 | 6751 ft | 234 kts | 232° |
| 2026-04-22 01:26 | 11.99431 | 121.84997 | 6473 ft | 230 kts | 233° |
| 2026-04-22 01:27 | 11.98518 | 121.83656 | 6145 ft | 230 kts | 233° |
| 2026-04-22 01:27 | 11.97600 | 121.82321 | 5823 ft | 229 kts | 233° |
| 2026-04-22 01:27 | 11.96685 | 121.80991 | 5515 ft | 228 kts | 233° |
| 2026-04-22 01:27 | 11.95772 | 121.79666 | 5206 ft | 228 kts | 233° |
| 2026-04-22 01:28 | 11.94873 | 121.78356 | 4902 ft | 227 kts | 233° |
| 2026-04-22 01:28 | 11.93970 | 121.77044 | 4611 ft | 224 kts | 233° |
| 2026-04-22 01:28 | 11.93068 | 121.75769 | 4308 ft | 218 kts | 228° |
| 2026-04-22 01:28 | 11.91914 | 121.74820 | 4000 ft | 209 kts | 205° |
| 2026-04-22 01:29 | 11.90590 | 121.74319 | 3781 ft | 196 kts | 186° |
| 2026-04-22 01:29 | 11.89323 | 121.74239 | 3773 ft | 172 kts | 169° |
| 2026-04-22 01:29 | 11.88191 | 121.74481 | 3776 ft | 162 kts | 154° |
| 2026-04-22 01:29 | 11.87183 | 121.74962 | 3780 ft | 159 kts | 145° |
| 2026-04-22 01:30 | 11.86195 | 121.75472 | 3782 ft | 160 kts | 148° |
| 2026-04-22 01:30 | 11.85274 | 121.76068 | 3773 ft | 154 kts | 130° |
| 2026-04-22 01:30 | 11.84679 | 121.76901 | 3811 ft | 138 kts | 114° |
| 2026-04-22 01:30 | 11.84373 | 121.77784 | 3689 ft | 132 kts | 99° |
| 2026-04-22 01:31 | 11.84326 | 121.78712 | 3528 ft | 130 kts | 84° |
| 2026-04-22 01:31 | 11.84578 | 121.79592 | 3366 ft | 130 kts | 69° |
| 2026-04-22 01:31 | 11.84963 | 121.80420 | 3259 ft | 127 kts | 68° |
| 2026-04-22 01:31 | 11.85350 | 121.81238 | 3083 ft | 130 kts | 67° |
| 2026-04-22 01:32 | 11.85759 | 121.82060 | 2877 ft | 129 kts | 65° |
| 2026-04-22 01:32 | 11.86159 | 121.82858 | 2671 ft | 127 kts | 65° |
| 2026-04-22 01:32 | 11.86556 | 121.83648 | 2458 ft | 122 kts | 65° |
| 2026-04-22 01:32 | 11.86936 | 121.84399 | 2280 ft | 120 kts | 66° |
| 2026-04-22 01:33 | 11.87302 | 121.85131 | 2245 ft | 112 kts | 67° |
| 2026-04-22 01:33 | 11.87653 | 121.85834 | 2209 ft | 112 kts | 66° |
| 2026-04-22 01:33 | 11.88015 | 121.86562 | 2054 ft | 117 kts | 65° |
| 2026-04-22 01:33 | 11.88394 | 121.87300 | 1813 ft | 118 kts | 66° |
| 2026-04-22 01:34 | 11.88776 | 121.88043 | 1581 ft | 119 kts | 65° |
| 2026-04-22 01:34 | 11.89141 | 121.88800 | 1283 ft | 118 kts | 67° |
| 2026-04-22 01:34 | 11.89508 | 121.89526 | 1093 ft | 111 kts | 63° |
| 2026-04-22 01:34 | 11.89900 | 121.90195 | 997 ft | 109 kts | 63° |
| 2026-04-22 01:35 | 11.90266 | 121.90872 | 928 ft | 112 kts | 66° |
| 2026-04-22 01:35 | 11.90614 | 121.91587 | 789 ft | 113 kts | 68° |
| 2026-04-22 01:35 | 11.90945 | 121.92303 | 659 ft | 110 kts | 68° |
| 2026-04-22 01:35 | 11.91303 | 121.93010 | 514 ft | 113 kts | 65° |
| 2026-04-22 01:36 | 11.91632 | 121.93720 | 387 ft | 111 kts | 68° |
| 2026-04-22 01:36 | 11.91979 | 121.94442 | 216 ft | 114 kts | 64° |
| 2026-04-22 01:36 | 11.92336 | 121.95157 | 57 ft | 110 kts | 65° |
| 2026-04-22 01:36 | 11.92670 | 121.95823 | 33 ft | 100 kts | 65° |
| 2026-04-22 01:37 | 11.92879 | 121.96243 | 30 ft | 36 kts | 63° |
| 2026-04-22 01:37 | 11.92945 | 121.96376 | 30 ft | 17 kts | 64° |
| 2026-04-22 01:37 | 11.92947 | 121.96453 | 31 ft | 10 kts | 124° |
| 2026-04-22 01:37 | 11.92920 | 121.96477 | 36 ft | 3 kts | 146° |
| 2026-04-22 01:38 | 11.92878 | 121.96501 | 39 ft | 11 kts | 152° |
| 2026-04-22 01:38 | 11.92802 | 121.96524 | 40 ft | 11 kts | 202° |
| 2026-04-22 01:38 | 11.92767 | 121.96466 | 40 ft | 10 kts | 242° |
| 2026-04-22 01:38 | 11.92734 | 121.96397 | 40 ft | 11 kts | 243° |
| 2026-04-22 01:39 | 11.92696 | 121.96322 | 40 ft | 11 kts | 243° |
| 2026-04-22 01:39 | 11.92665 | 121.96258 | 40 ft | 13 kts | 243° |
| 2026-04-22 01:39 | 11.92680 | 121.96184 | 40 ft | 15 kts | 333° |
| 2026-04-22 01:39 | 11.92788 | 121.96126 | 32 ft | 20 kts | 317° |
| 2026-04-22 01:40 | 11.92750 | 121.95983 | 31 ft | 28 kts | 243° |
| 2026-04-22 01:40 | 11.92628 | 121.95743 | 32 ft | 47 kts | 243° |
| 2026-04-22 01:40 | 11.92488 | 121.95460 | 30 ft | 30 kts | 244° |
| 2026-04-22 01:40 | 11.92433 | 121.95347 | 31 ft | 12 kts | 244° |
| 2026-04-22 01:41 | 11.92459 | 121.95299 | 33 ft | 3 kts | 331° |
| 2026-04-22 01:41 | 11.92466 | 121.95293 | 35 ft | 2 kts | 317° |
| 2026-04-22 01:41 | 11.92464 | 121.95266 | 36 ft | 3 kts | 240° |
| 2026-04-22 01:41 | 11.92461 | 121.95260 | 36 ft | 0 kts | 239° |